createdAt,value
2019-06-20T00:01:09.509Z,5.58
2019-06-20T00:03:39.187Z,3.90
2019-06-20T00:06:08.505Z,4.17
2019-06-20T00:08:38.346Z,4.37
2019-06-20T00:11:07.958Z,4.47
2019-06-20T00:13:37.317Z,4.15
2019-06-20T00:16:07.175Z,4.37
2019-06-20T00:18:36.878Z,3.85
2019-06-20T00:21:06.974Z,3.20
2019-06-20T00:23:36.256Z,3.22
2019-06-20T00:26:07.771Z,3.05
2019-06-20T00:28:37.245Z,3.47
2019-06-20T00:31:07.018Z,3.30
2019-06-20T00:33:36.246Z,2.70
2019-06-20T00:36:05.680Z,2.95
2019-06-20T00:38:34.882Z,2.60
2019-06-20T00:41:04.222Z,3.10
2019-06-20T00:43:33.511Z,2.90
2019-06-20T00:46:02.665Z,3.10
2019-06-20T00:48:32.424Z,2.62
2019-06-20T00:51:01.889Z,2.60
2019-06-20T00:53:31.293Z,2.90
2019-06-20T00:56:00.765Z,3.40
2019-06-20T00:58:30.225Z,3.33
2019-06-20T01:01:00.801Z,3.30
2019-06-20T01:03:30.085Z,3.25
2019-06-20T01:05:59.768Z,2.52
2019-06-20T01:08:29.661Z,3.47
2019-06-20T01:10:59.300Z,3.00
2019-06-20T01:13:33.456Z,3.70
2019-06-20T01:16:00.547Z,2.98
2019-06-20T01:18:30.028Z,3.17
2019-06-20T01:20:59.891Z,3.50
2019-06-20T01:23:29.201Z,3.15
2019-06-20T01:25:58.834Z,3.55
2019-06-20T01:28:28.294Z,3.30
2019-06-20T01:30:57.682Z,2.83
2019-06-20T01:33:27.436Z,3.12
2019-06-20T01:35:57.437Z,3.00
2019-06-20T01:38:27.143Z,2.90
2019-06-20T01:40:56.728Z,2.62
2019-06-20T01:43:26.252Z,2.90
2019-06-20T01:45:55.472Z,2.62
2019-06-20T01:48:24.865Z,2.75
2019-06-20T01:50:54.745Z,2.80
2019-06-20T01:53:24.747Z,2.75
2019-06-20T01:55:55.008Z,2.90
2019-06-20T01:58:24.898Z,2.75
2019-06-20T02:00:54.062Z,2.35
2019-06-20T02:03:23.762Z,2.20
2019-06-20T02:05:53.543Z,2.47
2019-06-20T02:08:22.635Z,2.22
2019-06-20T02:10:52.277Z,2.60
2019-06-20T02:13:21.556Z,2.25
2019-06-20T02:15:50.819Z,2.30
2019-06-20T02:18:20.341Z,2.25
2019-06-20T02:20:52.682Z,2.20
2019-06-20T02:23:23.864Z,2.60
2019-06-20T02:25:53.254Z,2.05
2019-06-20T02:28:24.379Z,2.20
2019-06-20T02:30:53.556Z,2.50
2019-06-20T02:33:23.171Z,2.60
2019-06-20T02:35:52.648Z,2.72
2019-06-20T02:38:22.116Z,2.50
2019-06-20T02:40:51.656Z,3.12
2019-06-20T02:43:20.936Z,2.98
2019-06-20T02:45:50.135Z,3.00
2019-06-20T02:48:19.051Z,3.20
2019-06-20T02:50:48.282Z,3.37
2019-06-20T02:53:17.545Z,4.22
2019-06-20T02:55:48.774Z,3.92
2019-06-20T02:58:18.023Z,5.47
2019-06-20T03:01:00.949Z,4.78
2019-06-20T03:03:31.620Z,4.87
2019-06-20T03:06:01.580Z,5.45
2019-06-20T03:08:31.549Z,4.92
2019-06-20T03:11:00.833Z,4.67
2019-06-20T03:13:30.030Z,4.60
2019-06-20T03:15:59.952Z,4.53
2019-06-20T03:18:29.110Z,4.37
2019-06-20T03:20:58.703Z,4.00
2019-06-20T03:23:29.232Z,4.50
2019-06-20T03:25:58.955Z,3.92
2019-06-20T03:28:28.303Z,4.35
2019-06-20T03:30:57.897Z,3.90
2019-06-20T03:33:28.114Z,4.20
2019-06-20T03:35:58.063Z,3.95
2019-06-20T03:38:27.635Z,3.95
2019-06-20T03:40:57.070Z,4.28
2019-06-20T03:43:26.279Z,4.70
2019-06-20T03:45:55.599Z,4.42
2019-06-20T03:48:26.244Z,4.85
2019-06-20T03:50:56.514Z,4.33
2019-06-20T03:53:25.862Z,4.60
2019-06-20T03:55:56.145Z,4.30
2019-06-20T03:58:25.807Z,4.00
2019-06-20T04:00:55.575Z,3.52
2019-06-20T04:03:25.235Z,4.15
2019-06-20T04:05:55.125Z,4.60
2019-06-20T04:08:24.450Z,4.00
2019-06-20T04:10:54.056Z,4.65
2019-06-20T04:13:23.876Z,4.62
2019-06-20T04:15:53.838Z,4.00
2019-06-20T04:18:23.277Z,4.45
2019-06-20T04:20:52.370Z,4.40
2019-06-20T04:23:21.927Z,4.12
2019-06-20T04:25:51.772Z,3.92
2019-06-20T04:28:21.981Z,4.60
2019-06-20T04:30:51.304Z,4.33
2019-06-20T04:33:20.519Z,4.42
2019-06-20T04:35:50.663Z,4.50
2019-06-20T04:38:20.764Z,4.37
2019-06-20T04:40:50.673Z,3.33
2019-06-20T04:43:19.952Z,3.95
2019-06-20T04:45:59.192Z,5.05
2019-06-20T04:48:28.555Z,4.08
2019-06-20T04:50:58.127Z,3.83
2019-06-20T04:53:27.373Z,3.67
2019-06-20T04:55:56.795Z,3.92
2019-06-20T05:01:42.533Z,3.30
2019-06-20T05:04:13.587Z,3.80
2019-06-20T05:06:45.237Z,4.42
2019-06-20T05:09:14.709Z,3.90
2019-06-20T05:11:44.116Z,3.42
2019-06-20T05:14:13.420Z,3.10
2019-06-20T05:16:42.439Z,3.67
2019-06-20T05:19:32.717Z,3.02
2019-06-20T05:22:02.096Z,3.27
2019-06-20T05:24:32.944Z,3.15
2019-06-20T05:27:02.453Z,3.80
2019-06-20T05:29:32.091Z,3.17
2019-06-20T05:32:01.406Z,3.67
2019-06-20T05:34:30.599Z,3.85
2019-06-20T05:36:59.854Z,3.60
2019-06-20T05:39:29.595Z,3.90
2019-06-20T05:41:58.965Z,3.62
2019-06-20T05:44:28.734Z,4.00
2019-06-20T05:47:11.834Z,4.03
2019-06-20T05:49:29.549Z,3.92
2019-06-20T05:51:59.429Z,3.95
2019-06-20T05:54:28.605Z,3.58
2019-06-20T05:56:57.621Z,4.03
2019-06-20T05:59:26.704Z,4.15
2019-06-20T06:01:56.489Z,3.72
2019-06-20T06:04:26.395Z,3.52
2019-06-20T06:06:55.490Z,4.33
2019-06-20T06:09:24.736Z,3.72
2019-06-20T06:11:54.098Z,3.67
2019-06-20T06:14:23.324Z,3.90
2019-06-20T06:16:52.582Z,3.37
2019-06-20T06:19:21.889Z,3.80
2019-06-20T06:21:52.070Z,4.15
2019-06-20T06:24:21.419Z,4.20
2019-06-20T06:26:50.703Z,4.10
2019-06-20T06:29:19.857Z,3.65
2019-06-20T06:31:49.254Z,3.70
2019-06-20T06:34:21.893Z,3.77
2019-06-20T06:36:49.357Z,3.40
2019-06-20T06:39:21.438Z,3.40
2019-06-20T06:41:50.953Z,3.33
2019-06-20T06:44:20.028Z,3.25
2019-06-20T06:46:55.425Z,3.22
2019-06-20T06:49:19.974Z,3.33
2019-06-20T06:51:49.102Z,3.37
2019-06-20T06:54:18.188Z,3.22
2019-06-20T06:56:47.246Z,2.50
2019-06-20T06:59:16.608Z,2.17
2019-06-20T07:01:45.907Z,1.87
2019-06-20T07:04:14.907Z,2.12
2019-06-20T07:06:45.255Z,1.80
2019-06-20T07:09:15.249Z,2.10
2019-06-20T07:11:47.920Z,2.10
2019-06-20T07:14:19.971Z,1.82
2019-06-20T07:17:00.652Z,1.95
2019-06-20T07:19:38.604Z,1.80
2019-06-20T07:22:09.592Z,1.90
2019-06-20T07:24:41.217Z,1.90
2019-06-20T07:27:26.031Z,1.75
2019-06-20T07:29:56.873Z,2.30
2019-06-20T07:32:35.755Z,1.87
2019-06-20T07:35:11.435Z,2.10
2019-06-20T07:37:42.805Z,1.90
2019-06-20T07:40:17.186Z,2.00
2019-06-20T07:42:48.160Z,2.10
2019-06-20T07:45:22.613Z,2.22
2019-06-20T07:47:56.136Z,2.30
2019-06-20T07:50:29.668Z,1.77
2019-06-20T07:53:02.374Z,2.20
2019-06-20T07:55:31.592Z,2.40
2019-06-20T07:58:18.844Z,2.27
2019-06-20T08:00:49.670Z,1.57
2019-06-20T08:03:19.612Z,1.55
2019-06-20T08:05:48.634Z,1.40
2019-06-20T08:08:19.862Z,1.30
2019-06-20T08:10:50.382Z,1.27
2019-06-20T08:13:43.647Z,1.60
2019-06-20T08:16:16.554Z,1.40
2019-06-20T08:18:45.611Z,1.17
2019-06-20T08:21:17.324Z,1.60
2019-06-20T08:23:47.213Z,1.30
2019-06-20T08:26:17.098Z,1.40
2019-06-20T08:28:49.564Z,1.20
2019-06-20T08:31:18.502Z,1.40
2019-06-20T08:33:47.866Z,1.42
2019-06-20T08:36:17.169Z,1.42
2019-06-20T08:38:47.480Z,1.40
2019-06-20T08:41:16.906Z,1.27
2019-06-20T08:43:46.927Z,1.30
2019-06-20T08:46:19.515Z,1.32
2019-06-20T08:48:49.533Z,1.45
2019-06-20T08:51:21.533Z,1.30
2019-06-20T08:53:51.567Z,1.30
2019-06-20T08:56:22.600Z,1.10
2019-06-20T08:58:52.480Z,1.50
2019-06-20T09:01:26.120Z,1.27
2019-06-20T09:06:33.207Z,1.37
2019-06-20T09:09:08.675Z,1.27
2019-06-20T09:11:38.050Z,1.30
2019-06-20T09:14:07.511Z,1.12
2019-06-20T09:16:36.790Z,1.12
2019-06-20T09:19:12.832Z,1.10
2019-06-20T09:21:42.303Z,1.30
2019-06-20T09:24:11.274Z,1.30
2019-06-20T09:26:40.277Z,1.07
2019-06-20T09:29:09.443Z,1.25
2019-06-20T09:31:42.734Z,0.95
2019-06-20T09:34:13.053Z,1.00
2019-06-20T09:36:43.389Z,0.88
2019-06-20T09:39:38.359Z,1.10
2019-06-20T09:42:08.557Z,1.00
2019-06-20T09:45:00.901Z,0.90
2019-06-20T09:47:35.750Z,1.27
2019-06-20T09:50:30.743Z,1.20
2019-06-20T09:53:00.791Z,1.10
2019-06-20T09:55:38.472Z,0.72
2019-06-20T09:58:10.068Z,1.00
2019-06-20T10:01:00.340Z,1.00
2019-06-20T10:03:29.832Z,0.93
2019-06-20T10:06:14.016Z,1.00
2019-06-20T10:08:37.471Z,0.70
2019-06-20T10:11:07.564Z,0.80
2019-06-20T10:13:41.667Z,0.78
2019-06-20T10:16:14.883Z,0.80
2019-06-20T10:19:04.742Z,0.72
2019-06-20T10:21:38.305Z,0.95
2019-06-20T10:24:09.896Z,1.00
2019-06-20T10:26:39.766Z,0.98
2019-06-20T10:29:17.717Z,0.85
2019-06-20T10:32:07.103Z,0.90
2019-06-20T10:34:37.001Z,0.75
2019-06-20T10:37:16.630Z,0.80
2019-06-20T10:39:48.080Z,0.70
2019-06-20T10:42:17.437Z,0.98
2019-06-20T10:44:53.698Z,1.45
2019-06-20T10:47:33.585Z,1.20
2019-06-20T10:49:57.124Z,1.35
2019-06-20T10:52:42.042Z,1.22
2019-06-20T10:55:12.823Z,1.52
2019-06-20T10:57:44.277Z,1.10
2019-06-20T11:03:04.453Z,0.75
2019-06-20T11:05:42.020Z,1.10
2019-06-20T11:08:15.499Z,1.10
2019-06-20T11:10:45.685Z,1.00
2019-06-20T11:13:14.984Z,0.95
2019-06-20T11:15:44.109Z,1.10
2019-06-20T11:18:13.406Z,0.90
2019-06-20T11:20:42.795Z,1.10
2019-06-20T11:23:12.165Z,1.40
2019-06-20T11:25:41.958Z,1.00
2019-06-20T11:28:11.674Z,1.22
2019-06-20T11:30:52.639Z,1.17
2019-06-20T11:33:13.105Z,1.15
2019-06-20T11:35:43.246Z,1.12
2019-06-20T11:38:13.150Z,1.22
2019-06-20T11:40:43.830Z,1.12
2019-06-20T11:43:18.832Z,1.10
2019-06-20T11:45:47.864Z,1.20
2019-06-20T11:48:16.713Z,1.47
2019-06-20T11:50:46.603Z,1.30
2019-06-20T11:53:15.494Z,1.47
2019-06-20T11:55:44.687Z,1.25
2019-06-20T11:58:14.296Z,1.50
2019-06-20T12:00:43.617Z,1.40
2019-06-20T12:03:13.215Z,1.60
2019-06-20T12:05:43.248Z,1.80
2019-06-20T12:08:12.996Z,1.57
2019-06-20T12:10:49.582Z,1.80
2019-06-20T12:13:19.034Z,1.90
2019-06-20T12:15:48.991Z,1.70
2019-06-20T12:18:18.885Z,1.50
2019-06-20T12:20:48.802Z,1.35
2019-06-20T12:23:28.531Z,1.60
2019-06-20T12:26:03.432Z,1.90
2019-06-20T12:28:32.835Z,1.80
2019-06-20T12:31:18.228Z,1.67
2019-06-20T12:33:33.952Z,1.62
2019-06-20T12:42:14.489Z,1.47
2019-06-20T12:44:45.929Z,1.35
2019-06-20T12:47:16.292Z,1.45
2019-06-20T12:49:45.864Z,1.35
2019-06-20T12:52:15.905Z,1.40
2019-06-20T12:54:45.061Z,1.22
2019-06-20T12:57:15.448Z,1.32
2019-06-20T13:02:21.353Z,1.07
2019-06-20T13:04:51.196Z,1.50
2019-06-20T13:07:20.944Z,1.30
2019-06-20T13:09:50.414Z,1.22
2019-06-20T13:12:20.431Z,1.20
2019-06-20T13:14:50.801Z,1.00
2019-06-20T13:17:20.031Z,1.30
2019-06-20T13:19:54.632Z,1.40
2019-06-20T13:22:23.937Z,1.12
2019-06-20T13:24:54.268Z,1.00
2019-06-20T13:27:29.831Z,1.40
2019-06-20T13:30:01.187Z,1.20
2019-06-20T13:32:31.216Z,1.30
2019-06-20T13:37:51.845Z,1.60
2019-06-20T13:40:22.027Z,1.50
2019-06-20T13:42:57.679Z,1.50
2019-06-20T13:45:39.611Z,1.40
2019-06-20T13:48:08.917Z,2.37
2019-06-20T13:50:47.951Z,2.40
2019-06-20T13:53:19.369Z,2.55
2019-06-20T13:55:50.147Z,2.60
2019-06-20T13:58:28.395Z,2.55
2019-06-20T14:00:59.377Z,2.98
2019-06-20T14:03:30.617Z,2.40
2019-06-20T14:06:04.725Z,2.52
2019-06-20T14:08:35.089Z,2.25
2019-06-20T14:11:05.638Z,2.33
2019-06-20T14:13:47.964Z,1.77
2019-06-20T14:16:17.429Z,1.98
2019-06-20T14:18:50.842Z,1.80
2019-06-20T14:23:56.834Z,2.20
2019-06-20T14:26:27.473Z,1.90
2019-06-20T14:28:58.034Z,2.70
2019-06-20T14:31:28.021Z,2.25
2019-06-20T14:34:05.794Z,2.12
2019-06-20T14:39:13.974Z,1.75
2019-06-20T14:41:48.603Z,2.02
2019-06-20T14:44:18.504Z,1.98
2019-06-20T14:46:50.600Z,1.87
2019-06-20T14:49:24.898Z,2.10
2019-06-20T14:51:55.205Z,2.30
2019-06-20T14:54:24.599Z,1.92
2019-06-20T14:57:19.065Z,2.00
2019-06-20T14:59:49.958Z,1.62
2019-06-20T15:02:20.385Z,1.62
2019-06-20T15:05:05.572Z,2.20
2019-06-20T15:07:36.438Z,2.00
2019-06-20T15:10:24.905Z,2.05
2019-06-20T15:13:05.095Z,2.62
2019-06-20T15:15:36.021Z,2.70
2019-06-20T15:18:17.828Z,2.67
2019-06-20T15:21:01.993Z,2.80
2019-06-20T15:23:38.872Z,2.83
2019-06-20T15:26:30.359Z,2.50
2019-06-20T15:29:07.405Z,2.80
2019-06-20T15:34:19.170Z,2.30
2019-06-20T15:36:55.945Z,2.50
2019-06-20T15:44:58.989Z,2.10
2019-06-20T15:47:35.160Z,2.30
2019-06-20T15:50:25.895Z,2.05
2019-06-20T15:53:11.531Z,2.35
2019-06-20T15:55:45.613Z,2.33
2019-06-20T15:58:21.591Z,1.90
2019-06-20T16:01:06.687Z,2.25
2019-06-20T16:06:21.531Z,2.37
2019-06-20T16:09:08.405Z,2.70
2019-06-20T16:11:57.212Z,2.98
2019-06-20T16:14:37.266Z,2.95
2019-06-20T16:17:18.900Z,3.20
2019-06-20T16:20:06.605Z,2.90
2019-06-20T16:22:41.515Z,3.72
2019-06-20T16:25:27.332Z,3.30
2019-06-20T16:28:03.996Z,3.33
2019-06-20T16:30:50.885Z,3.80
2019-06-20T16:33:27.477Z,4.42
2019-06-20T16:36:13.010Z,4.20
2019-06-20T16:38:43.237Z,3.92
2019-06-20T16:41:33.619Z,3.85
2019-06-20T16:44:28.329Z,3.30
2019-06-20T16:47:12.491Z,3.10
2019-06-20T16:50:05.137Z,3.55
2019-06-20T16:52:56.442Z,2.92
2019-06-20T16:55:39.016Z,2.37
2019-06-20T16:58:17.649Z,2.22
2019-06-20T17:01:06.319Z,2.17
2019-06-20T17:03:50.308Z,2.22
2019-06-20T17:06:33.272Z,2.17
2019-06-20T17:09:11.772Z,1.62
2019-06-20T17:11:52.825Z,1.92
2019-06-20T17:14:57.365Z,2.52
2019-06-20T17:17:34.577Z,2.22
2019-06-20T17:20:14.550Z,1.85
2019-06-20T17:22:54.100Z,2.27
2019-06-20T17:25:27.503Z,2.47
2019-06-20T17:28:17.602Z,2.17
2019-06-20T17:31:13.277Z,2.45
2019-06-20T17:34:13.205Z,2.33
2019-06-20T17:40:08.363Z,2.40
2019-06-20T17:43:22.248Z,1.98
2019-06-20T17:46:13.724Z,1.57
2019-06-20T17:51:48.376Z,1.32
2019-06-20T17:54:18.295Z,1.57
2019-06-20T17:56:47.040Z,1.35
2019-06-20T17:59:15.979Z,1.37
2019-06-20T18:01:44.591Z,1.30
2019-06-20T18:04:14.006Z,0.95
2019-06-20T18:06:43.159Z,1.50
2019-06-20T18:09:11.775Z,1.55
2019-06-20T18:11:40.496Z,1.17
2019-06-20T18:14:09.047Z,1.62
2019-06-20T18:16:37.790Z,1.50
2019-06-20T18:19:06.441Z,1.10
2019-06-20T18:21:35.010Z,1.10
2019-06-20T18:24:06.933Z,1.30
2019-06-20T18:26:35.656Z,0.95
2019-06-20T18:29:04.281Z,1.10
2019-06-20T18:31:32.814Z,1.20
2019-06-20T18:34:01.514Z,1.20
2019-06-20T18:36:30.107Z,1.12
2019-06-20T18:38:58.848Z,2.72
2019-06-20T18:41:27.443Z,1.77
2019-06-20T18:43:56.153Z,1.80
2019-06-20T18:46:24.716Z,2.02
2019-06-20T18:48:53.499Z,1.80
2019-06-20T18:51:22.566Z,1.60
2019-06-20T18:53:51.175Z,1.95
2019-06-20T18:56:19.802Z,1.67
2019-06-20T18:58:49.655Z,1.50
2019-06-20T19:01:18.236Z,1.60
2019-06-20T19:04:09.077Z,1.50
2019-06-20T19:06:37.922Z,1.52
2019-06-20T19:09:10.842Z,1.40
2019-06-20T19:11:39.738Z,1.62
2019-06-20T19:14:12.290Z,1.50
2019-06-20T19:16:40.115Z,1.57
2019-06-20T19:19:08.635Z,1.75
2019-06-20T19:21:37.569Z,1.57
2019-06-20T19:24:06.399Z,1.70
2019-06-20T19:26:56.699Z,1.55
2019-06-20T19:29:28.468Z,1.72
2019-06-20T19:31:57.753Z,1.90
2019-06-20T19:34:26.769Z,1.70
2019-06-20T19:36:55.542Z,1.72
2019-06-20T19:39:24.180Z,4.12
2019-06-20T19:41:59.778Z,2.87
2019-06-20T19:44:28.801Z,2.67
2019-06-20T19:46:57.837Z,2.50
2019-06-20T19:49:26.601Z,2.60
2019-06-20T19:51:57.295Z,2.22
2019-06-20T19:54:26.821Z,2.67
2019-06-20T19:56:55.467Z,2.75
2019-06-20T19:59:25.926Z,3.85
2019-06-20T20:02:16.386Z,4.15
2019-06-20T20:04:45.539Z,4.20
2019-06-20T20:07:14.762Z,5.22
2019-06-20T20:09:43.589Z,4.90
2019-06-20T20:12:12.121Z,4.15
2019-06-20T20:14:41.038Z,4.97
2019-06-20T20:17:13.355Z,5.08
2019-06-20T20:19:43.378Z,5.25
2019-06-20T20:22:12.132Z,6.62
2019-06-20T20:24:42.469Z,7.10
2019-06-20T20:27:11.032Z,7.03
2019-06-20T20:29:39.617Z,6.40
2019-06-20T20:32:08.181Z,7.53
2019-06-20T20:34:38.671Z,8.18
2019-06-20T20:37:07.918Z,8.15
2019-06-20T20:39:36.459Z,8.30
2019-06-20T20:42:05.479Z,7.90
2019-06-20T20:44:36.018Z,7.72
2019-06-20T20:47:28.518Z,10.00
2019-06-20T20:50:00.158Z,9.65
2019-06-20T20:52:32.764Z,10.08
2019-06-20T20:55:02.890Z,9.80
2019-06-20T20:57:53.666Z,9.88
2019-06-20T21:00:34.854Z,9.83
2019-06-20T21:03:07.116Z,8.75
2019-06-20T21:05:50.460Z,9.35
2019-06-20T21:08:07.887Z,9.63
2019-06-20T21:10:59.164Z,10.95
2019-06-20T21:13:29.995Z,10.18
2019-06-20T21:16:01.844Z,10.25
2019-06-20T21:18:31.533Z,10.90
2019-06-20T21:21:00.126Z,10.88
2019-06-20T21:23:28.729Z,10.10
2019-06-20T21:25:57.278Z,11.65
2019-06-20T21:28:25.829Z,13.65
2019-06-20T21:30:54.481Z,14.83
2019-06-20T21:33:23.252Z,12.53
2019-06-20T21:36:07.511Z,14.30
2019-06-20T21:38:23.534Z,15.40
2019-06-20T21:40:52.146Z,12.35
2019-06-20T21:43:20.708Z,11.85
2019-06-20T21:45:49.388Z,13.65
2019-06-20T21:48:18.035Z,13.05
2019-06-20T21:50:46.760Z,12.55
2019-06-20T21:53:15.464Z,11.70
2019-06-20T21:55:44.146Z,11.93
2019-06-20T21:58:15.287Z,11.78
2019-06-20T22:00:46.643Z,11.97
2019-06-20T22:03:15.353Z,11.53
2019-06-20T22:05:44.327Z,12.23
2019-06-20T22:08:13.039Z,13.72
2019-06-20T22:10:41.767Z,14.33
2019-06-20T22:13:10.333Z,15.98
2019-06-20T22:15:38.959Z,14.10
2019-06-20T22:18:07.668Z,14.38
2019-06-20T22:20:36.279Z,13.70
2019-06-20T22:23:05.507Z,14.25
2019-06-20T22:25:34.429Z,12.28
2019-06-20T22:28:03.431Z,13.05
2019-06-20T22:31:06.319Z,13.45
2019-06-20T22:33:34.880Z,13.93
2019-06-20T22:36:03.575Z,12.60
2019-06-20T22:38:32.123Z,13.00
2019-06-20T22:41:00.720Z,12.00
2019-06-20T22:43:29.290Z,11.12
2019-06-20T22:45:57.803Z,11.78
2019-06-20T22:48:26.697Z,11.50
2019-06-20T22:50:55.306Z,11.20
2019-06-20T22:53:24.040Z,11.70
2019-06-20T22:55:53.064Z,13.43
2019-06-20T22:58:21.628Z,12.82
2019-06-20T23:00:50.266Z,11.28
2019-06-20T23:03:18.823Z,11.78
2019-06-20T23:05:47.700Z,14.18
2019-06-20T23:08:16.249Z,13.70
2019-06-20T23:10:44.982Z,13.10
2019-06-20T23:13:13.889Z,13.18
2019-06-20T23:15:42.519Z,12.58
2019-06-20T23:18:11.328Z,12.60
2019-06-20T23:20:40.072Z,13.15
2019-06-20T23:23:08.619Z,13.30
2019-06-20T23:25:38.839Z,14.80
2019-06-20T23:28:07.705Z,12.18
2019-06-20T23:30:36.354Z,12.35
2019-06-20T23:33:05.293Z,13.00
2019-06-20T23:35:34.558Z,11.90
2019-06-20T23:38:23.255Z,12.30
2019-06-20T23:41:01.091Z,12.47
2019-06-20T23:43:31.950Z,12.30
2019-06-20T23:46:04.480Z,11.83
2019-06-20T23:48:45.852Z,11.63
2019-06-20T23:54:07.737Z,13.47
2019-06-20T23:57:11.153Z,12.55
2019-06-20T23:59:41.590Z,12.47
